Terminal Aerodrome Forecast
Issued by NWS Topeka, KS

Home | Current Version | Previous Version | Text Only | Print | Product List | Glossary On
Versions: 1 2 3 4 5 6 7 8 9 10 11 12 13 14 15 16 17 18 19 20 21 22 23 24 25 26
818
FTUS43 KTOP 261742
TAFTOP
TAF
KTOP 261742Z 2618/2718 12011G20KT P6SM SCT030
     FM262100 13012G22KT P6SM VCTS BKN035CB
      TEMPO 2702/2706 2SM TSRA BR BKN025CB
     FM271100 16011KT P6SM BKN040=

USA.gov is the U.S. government's official web portal to all federal, state and local government web resources and services.